createdAt,value
2018-02-18T00:00:18.644Z,53.70
2018-02-18T00:01:18.655Z,52.60
2018-02-18T00:02:18.675Z,50.80
2018-02-18T00:03:18.686Z,52.40
2018-02-18T00:04:18.709Z,51.80
2018-02-18T00:05:18.721Z,51.70
2018-02-18T00:06:18.741Z,52.00
2018-02-18T00:07:18.800Z,52.30
2018-02-18T00:08:18.769Z,53.30
2018-02-18T00:09:18.789Z,53.20
2018-02-18T00:10:18.806Z,52.60
2018-02-18T00:11:18.817Z,51.30
2018-02-18T00:12:18.834Z,51.20
2018-02-18T00:13:18.856Z,51.10
2018-02-18T00:14:18.871Z,51.30
2018-02-18T00:15:18.882Z,52.30
2018-02-18T00:16:18.906Z,52.30
2018-02-18T00:17:18.914Z,51.70
2018-02-18T00:18:18.930Z,55.70
2018-02-18T00:19:18.952Z,55.30
2018-02-18T00:20:18.969Z,53.50
2018-02-18T00:21:18.979Z,54.10
2018-02-18T00:22:18.996Z,55.50
2018-02-18T00:23:19.017Z,54.70
2018-02-18T00:24:19.028Z,54.10
2018-02-18T00:25:19.052Z,53.30
2018-02-18T00:26:19.065Z,53.70
2018-02-18T00:27:19.075Z,52.60
2018-02-18T00:28:19.093Z,53.10
2018-02-18T00:29:19.114Z,53.10
2018-02-18T00:30:19.129Z,52.30
2018-02-18T00:31:19.139Z,53.00
2018-02-18T00:32:19.157Z,54.10
2018-02-18T00:33:19.184Z,53.20
2018-02-18T00:34:19.193Z,52.40
2018-02-18T00:35:19.204Z,52.50
2018-02-18T00:36:19.222Z,53.40
2018-02-18T00:37:19.244Z,55.10
2018-02-18T00:38:19.259Z,54.10
2018-02-18T00:39:19.271Z,54.40
2018-02-18T00:40:19.285Z,54.10
2018-02-18T00:41:19.307Z,54.90
2018-02-18T00:42:19.318Z,52.10
2018-02-18T00:43:19.339Z,52.20
2018-02-18T00:44:19.350Z,52.70
2018-02-18T00:45:19.373Z,53.40
2018-02-18T00:46:19.383Z,54.40
2018-02-18T00:47:19.403Z,53.40
2018-02-18T00:48:19.415Z,53.10
2018-02-18T00:49:19.436Z,52.50
2018-02-18T00:50:19.447Z,52.00
2018-02-18T00:51:19.468Z,50.50
2018-02-18T00:52:19.478Z,51.10
2018-02-18T00:53:19.500Z,51.70
2018-02-18T00:54:19.510Z,52.10
2018-02-18T00:55:19.533Z,51.20
2018-02-18T00:56:19.542Z,50.50
2018-02-18T00:57:19.565Z,52.30
2018-02-18T00:58:19.601Z,51.70
2018-02-18T00:59:19.596Z,50.80
2018-02-18T01:00:19.607Z,49.80
2018-02-18T01:01:19.629Z,50.10
2018-02-18T01:02:19.643Z,49.70
2018-02-18T01:03:19.683Z,50.80
2018-02-18T01:04:19.676Z,48.90
2018-02-18T01:05:19.690Z,50.50
2018-02-18T01:06:19.708Z,49.20
2018-02-18T01:07:19.718Z,49.10
2018-02-18T01:08:19.740Z,49.40
2018-02-18T01:09:19.752Z,49.10
2018-02-18T01:10:19.771Z,48.60
2018-02-18T01:11:19.786Z,50.00
2018-02-18T01:12:19.804Z,49.50
2018-02-18T01:13:19.834Z,48.00
2018-02-18T01:14:19.836Z,47.80
2018-02-18T01:15:19.846Z,50.60
2018-02-18T01:16:19.868Z,48.30
2018-02-18T01:17:19.879Z,49.40
2018-02-18T01:18:19.899Z,47.60
2018-02-18T01:19:19.910Z,51.00
2018-02-18T01:20:19.936Z,45.90
2018-02-18T01:21:19.941Z,48.00
2018-02-18T01:22:19.959Z,46.40
2018-02-18T01:23:19.980Z,46.60
2018-02-18T01:24:19.997Z,47.00
2018-02-18T01:25:20.007Z,46.20
2018-02-18T01:26:20.022Z,46.20
2018-02-18T01:27:20.042Z,49.40
2018-02-18T01:28:20.060Z,50.10
2018-02-18T01:29:20.069Z,51.40
2018-02-18T01:30:20.091Z,49.80
2018-02-18T01:31:20.104Z,47.30
2018-02-18T01:32:20.122Z,49.50
2018-02-18T01:33:20.133Z,50.50
2018-02-18T01:34:20.148Z,49.20
2018-02-18T01:35:20.171Z,50.70
2018-02-18T01:36:20.180Z,51.70
2018-02-18T01:37:20.201Z,49.70
2018-02-18T01:38:20.217Z,52.60
2018-02-18T01:39:20.227Z,52.00
2018-02-18T01:40:20.243Z,50.80
2018-02-18T01:41:20.264Z,51.50
2018-02-18T01:42:20.280Z,52.80
2018-02-18T01:43:20.292Z,51.30
2018-02-18T01:44:20.307Z,50.40
2018-02-18T01:45:20.327Z,51.20
2018-02-18T01:46:20.338Z,52.00
2018-02-18T01:47:20.363Z,51.40
2018-02-18T01:48:20.369Z,53.60
2018-02-18T01:49:20.392Z,54.40
2018-02-18T01:50:20.406Z,53.30
2018-02-18T01:51:20.416Z,51.30
2018-02-18T01:52:20.439Z,51.80
2018-02-18T01:53:20.450Z,51.70
2018-02-18T01:54:20.469Z,51.90
2018-02-18T01:55:20.479Z,52.00
2018-02-18T01:56:20.502Z,51.50
2018-02-18T01:57:20.511Z,51.50
2018-02-18T01:58:20.532Z,52.90
2018-02-18T01:59:20.543Z,51.50
2018-02-18T02:00:20.559Z,53.10
2018-02-18T02:01:20.575Z,52.00
2018-02-18T02:02:20.631Z,52.40
2018-02-18T02:03:20.605Z,53.80
2018-02-18T02:04:20.626Z,52.40
2018-02-18T02:05:20.639Z,52.00
2018-02-18T02:06:20.651Z,54.80
2018-02-18T02:07:20.668Z,54.80
2018-02-18T02:08:20.684Z,52.70
2018-02-18T02:09:20.706Z,54.60
2018-02-18T02:10:20.715Z,52.30
2018-02-18T02:11:20.736Z,52.70
2018-02-18T02:12:20.747Z,52.20
2018-02-18T02:13:20.767Z,51.50
2018-02-18T02:14:20.777Z,54.00
2018-02-18T02:15:20.798Z,54.30
2018-02-18T02:16:20.809Z,54.30
2018-02-18T02:17:20.825Z,55.40
2018-02-18T02:18:20.841Z,55.00
2018-02-18T02:19:20.862Z,61.90
2018-02-18T02:20:20.878Z,59.80
2018-02-18T02:21:20.888Z,57.30
2018-02-18T02:22:20.909Z,55.60
2018-02-18T02:23:20.924Z,57.00
2018-02-18T02:24:20.939Z,60.60
2018-02-18T02:25:20.950Z,60.20
2018-02-18T02:26:20.964Z,57.20
2018-02-18T02:27:20.986Z,58.50
2018-02-18T02:28:21.008Z,57.60
2018-02-18T02:29:21.012Z,58.70
2018-02-18T02:30:21.028Z,55.70
2018-02-18T02:31:21.048Z,54.80
2018-02-18T02:32:21.058Z,53.30
2018-02-18T02:33:21.082Z,57.30
2018-02-18T02:34:21.095Z,54.50
2018-02-18T02:35:21.111Z,55.90
2018-02-18T02:36:21.129Z,51.80
2018-02-18T02:37:21.137Z,54.10
2018-02-18T02:38:21.156Z,54.50
2018-02-18T02:39:21.173Z,55.90
2018-02-18T02:40:21.182Z,54.80
2018-02-18T02:41:21.204Z,53.00
2018-02-18T02:42:21.219Z,57.20
2018-02-18T02:43:21.230Z,58.10
2018-02-18T02:44:21.244Z,53.10
2018-02-18T02:45:21.267Z,53.20
2018-02-18T02:46:21.279Z,54.70
2018-02-18T02:47:21.293Z,51.50
2018-02-18T02:48:21.310Z,51.90
2018-02-18T02:49:21.327Z,50.10
2018-02-18T02:50:21.342Z,51.90
2018-02-18T02:51:21.356Z,51.80
2018-02-18T02:52:21.370Z,50.60
2018-02-18T02:53:21.388Z,52.30
2018-02-18T02:54:21.406Z,53.60
2018-02-18T02:55:21.415Z,53.10
2018-02-18T02:56:21.434Z,52.50
2018-02-18T02:57:21.445Z,52.80
2018-02-18T02:58:21.465Z,50.20
2018-02-18T02:59:21.474Z,54.90
2018-02-18T03:00:21.497Z,52.60
2018-02-18T03:01:21.511Z,55.40
2018-02-18T03:02:21.530Z,51.20
2018-02-18T03:03:21.536Z,51.80
2018-02-18T03:04:21.565Z,51.70
2018-02-18T03:05:21.573Z,51.10
2018-02-18T03:06:21.587Z,53.10
2018-02-18T03:07:21.598Z,53.60
2018-02-18T03:08:21.614Z,52.50
2018-02-18T03:09:21.635Z,53.40
2018-02-18T03:10:21.649Z,51.00
2018-02-18T03:11:21.664Z,51.90
2018-02-18T03:12:21.674Z,50.70
2018-02-18T03:13:21.698Z,52.70
2018-02-18T03:14:21.705Z,53.40
2018-02-18T03:15:21.725Z,52.70
2018-02-18T03:16:21.735Z,53.70
2018-02-18T03:17:21.756Z,50.20
2018-02-18T03:18:21.766Z,53.90
2018-02-18T03:19:21.786Z,53.80
2018-02-18T03:20:21.796Z,52.80
2018-02-18T03:21:21.813Z,53.20
2018-02-18T03:22:21.826Z,53.20
2018-02-18T03:23:21.846Z,54.20
2018-02-18T03:24:21.862Z,55.10
2018-02-18T03:25:21.872Z,52.10
2018-02-18T03:26:21.886Z,52.80
2018-02-18T03:27:21.905Z,52.60
2018-02-18T03:28:21.922Z,52.90
2018-02-18T03:29:21.934Z,51.40
2018-02-18T03:30:21.948Z,50.90
2018-02-18T03:31:21.973Z,52.60
2018-02-18T03:32:21.983Z,54.10
2018-02-18T03:33:21.994Z,51.60
2018-02-18T03:34:22.007Z,51.10
2018-02-18T03:35:22.078Z,52.60
2018-02-18T03:36:22.044Z,53.60
2018-02-18T03:37:22.058Z,51.50
2018-02-18T03:38:22.071Z,53.50
2018-02-18T03:39:22.089Z,51.90
2018-02-18T03:40:22.099Z,52.80
2018-02-18T03:41:22.124Z,52.30
2018-02-18T03:42:22.130Z,55.00
2018-02-18T03:43:22.144Z,56.20
2018-02-18T03:44:22.159Z,54.70
2018-02-18T03:45:22.179Z,55.00
2018-02-18T03:46:22.197Z,53.20
2018-02-18T03:47:22.206Z,51.90
2018-02-18T03:48:22.220Z,52.80
2018-02-18T03:49:22.242Z,52.40
2018-02-18T03:50:22.256Z,52.60
2018-02-18T03:51:22.267Z,55.20
2018-02-18T03:52:22.280Z,57.40
2018-02-18T03:53:22.296Z,59.80
2018-02-18T03:54:22.311Z,56.40
2018-02-18T03:55:22.326Z,57.00
2018-02-18T03:56:22.347Z,55.10
2018-02-18T03:57:22.356Z,52.60
2018-02-18T03:58:22.376Z,52.30
2018-02-18T03:59:22.386Z,51.60
2018-02-18T04:00:22.408Z,52.50
2018-02-18T04:01:22.419Z,53.60
2018-02-18T04:02:22.433Z,51.40
2018-02-18T04:03:22.451Z,53.70
2018-02-18T04:04:22.468Z,52.40
2018-02-18T04:05:22.479Z,52.60
2018-02-18T04:06:22.493Z,51.00
2018-02-18T04:07:22.513Z,51.30
2018-02-18T04:08:22.529Z,52.10
2018-02-18T04:09:22.539Z,51.80
2018-02-18T04:10:22.557Z,50.30
2018-02-18T04:11:22.567Z,50.70
2018-02-18T04:12:22.589Z,48.70
2018-02-18T04:13:22.598Z,51.10
2018-02-18T04:14:22.612Z,48.00
2018-02-18T04:15:22.633Z,48.00
2018-02-18T04:16:22.643Z,48.40
2018-02-18T04:17:22.669Z,48.40
2018-02-18T04:18:22.678Z,48.70
2018-02-18T04:19:22.689Z,46.30
2018-02-18T04:20:22.702Z,45.50
2018-02-18T04:21:22.725Z,47.50
2018-02-18T04:22:22.739Z,47.10
2018-02-18T04:23:22.748Z,46.50
2018-02-18T04:24:22.768Z,46.90
2018-02-18T04:25:22.784Z,47.70
2018-02-18T04:26:22.794Z,46.20
2018-02-18T04:27:22.813Z,46.80
2018-02-18T04:28:22.824Z,46.10
2018-02-18T04:29:22.844Z,49.80
2018-02-18T04:30:22.857Z,45.90
2018-02-18T04:31:22.867Z,47.50
2018-02-18T04:32:22.882Z,46.60
2018-02-18T04:33:22.906Z,46.30
2018-02-18T04:34:22.911Z,47.40
2018-02-18T04:35:22.934Z,48.00
2018-02-18T04:36:22.943Z,48.60
2018-02-18T04:37:22.963Z,46.30
2018-02-18T04:38:22.972Z,47.30
2018-02-18T04:39:22.993Z,49.00
2018-02-18T04:40:23.005Z,45.50
2018-02-18T04:41:23.023Z,48.70
2018-02-18T04:42:23.034Z,45.20
2018-02-18T04:43:23.053Z,47.80
2018-02-18T04:44:23.062Z,45.20
2018-02-18T04:45:23.082Z,47.00
2018-02-18T04:46:23.090Z,45.60
2018-02-18T04:47:23.111Z,45.70
2018-02-18T04:48:23.126Z,47.20
2018-02-18T04:49:23.135Z,46.20
2018-02-18T04:50:23.155Z,46.40
2018-02-18T04:51:23.165Z,47.10
2018-02-18T04:52:23.186Z,47.10
2018-02-18T04:53:23.196Z,46.00
2018-02-18T04:54:23.214Z,47.20
2018-02-18T04:55:23.227Z,47.10
2018-02-18T04:56:23.243Z,46.50
2018-02-18T04:57:23.300Z,47.50
2018-02-18T04:58:23.275Z,47.00
2018-02-18T04:59:23.283Z,47.30
2018-02-18T05:00:23.303Z,45.80
2018-02-18T05:01:23.311Z,47.60
2018-02-18T05:02:23.332Z,45.50
2018-02-18T05:03:23.342Z,45.10
2018-02-18T05:04:23.362Z,46.00
2018-02-18T05:05:23.372Z,46.70
2018-02-18T05:06:23.385Z,43.40
2018-02-18T05:07:23.405Z,43.80
2018-02-18T05:08:23.424Z,44.60
2018-02-18T05:09:23.435Z,45.10
2018-02-18T05:10:23.445Z,46.20
2018-02-18T05:11:23.466Z,47.40
2018-02-18T05:12:23.476Z,44.00
2018-02-18T05:13:23.495Z,45.80
2018-02-18T05:14:23.509Z,46.90
2018-02-18T05:15:23.519Z,45.50
2018-02-18T05:16:23.533Z,46.10
2018-02-18T05:17:23.555Z,45.60
2018-02-18T05:18:23.587Z,46.80
2018-02-18T05:19:23.578Z,46.60
2018-02-18T05:20:23.594Z,43.50
2018-02-18T05:21:23.613Z,45.60
2018-02-18T05:22:23.627Z,45.00
2018-02-18T05:23:23.637Z,45.30
2018-02-18T05:24:23.653Z,45.10
2018-02-18T05:25:23.673Z,44.70
2018-02-18T05:26:23.687Z,45.90
2018-02-18T05:27:23.697Z,45.50
2018-02-18T05:28:23.711Z,45.50
2018-02-18T05:29:23.731Z,46.30
2018-02-18T05:30:23.740Z,44.80
2018-02-18T05:31:23.764Z,47.10
2018-02-18T05:32:23.770Z,45.80
2018-02-18T05:33:23.790Z,45.40
2018-02-18T05:34:23.800Z,45.10
2018-02-18T05:35:23.821Z,42.70
2018-02-18T05:36:23.828Z,44.60
2018-02-18T05:37:23.852Z,42.80
2018-02-18T05:38:23.859Z,42.30
2018-02-18T05:39:23.879Z,44.60
2018-02-18T05:40:23.888Z,44.50
2018-02-18T05:41:23.909Z,44.50
2018-02-18T05:42:23.917Z,44.90
2018-02-18T05:43:23.938Z,45.30
2018-02-18T05:44:23.953Z,45.70
2018-02-18T05:45:23.964Z,46.40
2018-02-18T05:46:23.982Z,45.40
2018-02-18T05:47:23.993Z,46.20
2018-02-18T05:48:24.012Z,45.90
2018-02-18T05:49:24.022Z,45.10
2018-02-18T05:50:24.049Z,45.40
2018-02-18T05:51:24.052Z,46.60
2018-02-18T05:52:24.072Z,47.60
2018-02-18T05:53:24.080Z,43.50
2018-02-18T05:54:24.100Z,47.00
2018-02-18T05:55:24.110Z,47.20
2018-02-18T05:56:24.131Z,47.20
2018-02-18T05:57:24.140Z,47.40
2018-02-18T05:58:24.159Z,47.70
2018-02-18T05:59:24.169Z,49.00
2018-02-18T06:00:24.183Z,47.20
2018-02-18T06:01:24.205Z,46.50
2018-02-18T06:02:24.219Z,48.30
2018-02-18T06:03:24.229Z,46.60
2018-02-18T06:04:24.243Z,45.90
2018-02-18T06:05:24.264Z,48.50
2018-02-18T06:06:24.283Z,47.30
2018-02-18T06:07:24.286Z,47.20
2018-02-18T06:08:24.307Z,46.60
2018-02-18T06:09:24.316Z,48.00
2018-02-18T06:10:24.331Z,46.50
2018-02-18T06:11:24.354Z,49.00
2018-02-18T06:12:24.368Z,45.20
2018-02-18T06:13:24.376Z,46.50
2018-02-18T06:14:24.394Z,45.70
2018-02-18T06:15:24.411Z,46.30
2018-02-18T06:16:24.426Z,46.00
2018-02-18T06:17:24.444Z,47.60
2018-02-18T06:18:24.448Z,45.90
2018-02-18T06:19:24.468Z,46.20
2018-02-18T06:20:24.480Z,44.60
2018-02-18T06:21:24.499Z,45.50
2018-02-18T06:22:24.508Z,43.40
2018-02-18T06:23:24.523Z,46.70
2018-02-18T06:24:24.543Z,45.60
2018-02-18T06:25:24.557Z,47.20
2018-02-18T06:26:24.571Z,45.10
2018-02-18T06:27:24.580Z,45.10
2018-02-18T06:28:24.598Z,43.30
2018-02-18T06:29:24.617Z,44.10
2018-02-18T06:30:24.630Z,42.80
2018-02-18T06:31:24.640Z,44.70
2018-02-18T06:32:24.655Z,44.30
2018-02-18T06:33:24.670Z,43.30
2018-02-18T06:34:24.690Z,43.60
2018-02-18T06:35:24.699Z,45.20
2018-02-18T06:36:24.721Z,44.20
2018-02-18T06:37:24.728Z,44.70
2018-02-18T06:38:24.750Z,44.30
2018-02-18T06:39:24.764Z,43.40
2018-02-18T06:40:24.780Z,45.00
2018-02-18T06:41:24.789Z,46.70
2018-02-18T06:42:24.806Z,43.20
2018-02-18T06:43:24.817Z,44.20
2018-02-18T06:44:24.836Z,44.30
2018-02-18T06:45:24.846Z,46.10
2018-02-18T06:46:24.866Z,44.60
2018-02-18T06:47:24.874Z,44.40
2018-02-18T06:48:24.896Z,44.10
2018-02-18T06:49:24.911Z,44.50
2018-02-18T06:50:24.926Z,43.50
2018-02-18T06:51:24.934Z,44.30
2018-02-18T06:52:24.950Z,42.40
2018-02-18T06:53:24.970Z,42.90
2018-02-18T06:54:24.987Z,43.60
2018-02-18T06:55:24.999Z,41.90
2018-02-18T06:56:25.010Z,44.10
2018-02-18T06:57:25.030Z,42.30
2018-02-18T06:58:25.038Z,43.50
2018-02-18T06:59:25.062Z,43.00
2018-02-18T07:00:25.069Z,44.50
2018-02-18T07:01:25.089Z,41.40
2018-02-18T07:02:25.098Z,42.00
2018-02-18T07:03:25.117Z,41.70
2018-02-18T07:04:25.131Z,42.00
2018-02-18T07:05:25.142Z,42.10
2018-02-18T07:06:25.157Z,41.10
2018-02-18T07:07:25.176Z,41.40
2018-02-18T07:08:25.192Z,41.20
2018-02-18T07:09:25.201Z,39.60
2018-02-18T07:10:25.218Z,39.30
2018-02-18T07:11:25.239Z,40.30
2018-02-18T07:12:25.252Z,42.50
2018-02-18T07:13:25.261Z,42.30
2018-02-18T07:14:25.277Z,39.70
2018-02-18T07:15:25.295Z,41.80
2018-02-18T07:16:25.311Z,39.20
2018-02-18T07:17:25.321Z,40.40
2018-02-18T07:18:25.335Z,39.90
2018-02-18T07:19:25.357Z,39.10
2018-02-18T07:20:25.365Z,39.70
2018-02-18T07:21:25.381Z,39.00
2018-02-18T07:22:25.395Z,38.10
2018-02-18T07:23:25.418Z,37.60
2018-02-18T07:24:25.431Z,38.60
2018-02-18T07:25:25.442Z,39.60
2018-02-18T07:26:25.465Z,39.30
2018-02-18T07:27:25.475Z,40.20
2018-02-18T07:28:25.488Z,38.30
2018-02-18T07:29:25.507Z,39.80
2018-02-18T07:30:25.522Z,40.50
2018-02-18T07:31:25.531Z,39.90
2018-02-18T07:32:25.547Z,40.00
2018-02-18T07:33:25.568Z,41.10
2018-02-18T07:34:25.582Z,41.50
2018-02-18T07:35:25.591Z,41.90
2018-02-18T07:36:25.613Z,41.00
2018-02-18T07:37:25.678Z,39.40
2018-02-18T07:38:25.638Z,39.50
2018-02-18T07:39:25.658Z,39.30
2018-02-18T07:40:25.668Z,38.90
2018-02-18T07:41:25.689Z,40.90
2018-02-18T07:42:25.703Z,38.60
2018-02-18T07:43:25.719Z,40.10
2018-02-18T07:44:25.734Z,38.80
2018-02-18T07:45:25.743Z,39.50
2018-02-18T07:46:25.764Z,40.20
2018-02-18T07:47:25.775Z,39.90
2018-02-18T07:48:25.795Z,37.90
2018-02-18T07:49:25.805Z,38.60
2018-02-18T07:50:25.825Z,39.50
2018-02-18T07:51:25.835Z,40.70
2018-02-18T07:52:25.850Z,37.20
2018-02-18T07:53:25.865Z,41.00
2018-02-18T07:54:25.880Z,42.10
2018-02-18T07:55:25.896Z,40.30
2018-02-18T07:56:25.917Z,41.70
2018-02-18T07:57:25.928Z,40.20
2018-02-18T07:58:25.946Z,41.50
2018-02-18T07:59:25.962Z,44.60
2018-02-18T08:00:25.971Z,43.00
2018-02-18T08:01:25.993Z,44.00
2018-02-18T08:02:26.003Z,39.90
2018-02-18T08:03:26.022Z,40.30
2018-02-18T08:04:26.033Z,37.50
2018-02-18T08:05:26.055Z,41.60
2018-02-18T08:06:26.063Z,40.50
2018-02-18T08:07:26.112Z,41.50
2018-02-18T08:08:26.095Z,41.60
2018-02-18T08:09:26.110Z,38.70
2018-02-18T08:10:26.129Z,41.20
2018-02-18T08:11:26.147Z,38.90
2018-02-18T08:12:26.162Z,40.20
2018-02-18T08:13:26.170Z,39.40
2018-02-18T08:14:26.191Z,37.80
2018-02-18T08:15:26.201Z,38.70
2018-02-18T08:16:26.222Z,37.80
2018-02-18T08:17:26.231Z,38.70
2018-02-18T08:18:26.253Z,35.70
2018-02-18T08:19:26.263Z,36.10
2018-02-18T08:20:26.285Z,36.00
2018-02-18T08:21:26.295Z,36.30
2018-02-18T08:22:26.314Z,36.50
2018-02-18T08:23:26.324Z,36.70
2018-02-18T08:24:26.340Z,35.60
2018-02-18T08:25:26.361Z,34.20
2018-02-18T08:26:26.371Z,34.40
2018-02-18T08:27:26.391Z,33.70
2018-02-18T08:28:26.402Z,34.40
2018-02-18T08:29:26.422Z,34.20
2018-02-18T08:30:26.431Z,33.10
2018-02-18T08:31:26.453Z,33.90
2018-02-18T08:32:26.463Z,33.00
2018-02-18T08:33:26.486Z,32.80
2018-02-18T08:34:26.500Z,33.80
2018-02-18T08:35:26.510Z,33.80
2018-02-18T08:36:26.527Z,32.60
2018-02-18T08:37:26.547Z,31.90
2018-02-18T08:38:26.562Z,33.00
2018-02-18T08:39:26.573Z,33.50
2018-02-18T08:40:26.594Z,32.90
2018-02-18T08:41:26.604Z,28.90
2018-02-18T08:42:26.624Z,30.20
2018-02-18T08:43:26.636Z,32.10
2018-02-18T08:44:26.657Z,29.20
2018-02-18T08:45:26.667Z,28.80
2018-02-18T08:46:26.688Z,27.20
2018-02-18T08:47:26.699Z,26.90
2018-02-18T08:48:26.715Z,27.30
2018-02-18T08:49:26.737Z,28.40
2018-02-18T08:50:26.752Z,26.00
2018-02-18T08:51:26.762Z,25.90
2018-02-18T08:52:26.778Z,27.10
2018-02-18T08:53:26.800Z,26.70
2018-02-18T08:54:26.818Z,26.40
2018-02-18T08:55:26.827Z,25.00
2018-02-18T08:56:26.848Z,22.90
2018-02-18T08:57:26.860Z,25.00
2018-02-18T08:58:26.874Z,22.20
2018-02-18T08:59:26.895Z,23.30
2018-02-18T09:00:26.913Z,23.70
2018-02-18T09:01:26.928Z,24.00
2018-02-18T09:02:26.943Z,24.70
2018-02-18T09:03:26.961Z,23.00
2018-02-18T09:04:26.972Z,24.90
2018-02-18T09:05:26.993Z,24.30
2018-02-18T09:06:27.005Z,22.20
2018-02-18T09:07:27.026Z,21.00
2018-02-18T09:08:27.039Z,21.30
2018-02-18T09:09:27.070Z,21.20
2018-02-18T09:10:27.077Z,19.90
2018-02-18T09:11:27.097Z,20.90
2018-02-18T09:12:27.110Z,21.50
2018-02-18T09:13:27.135Z,21.50
2018-02-18T09:14:27.153Z,21.10
2018-02-18T09:15:27.175Z,21.60
2018-02-18T09:16:27.187Z,21.40
2018-02-18T09:17:27.216Z,21.50
2018-02-18T09:18:27.237Z,21.00
2018-02-18T09:19:27.252Z,20.20
2018-02-18T09:20:27.274Z,21.50
2018-02-18T09:21:27.301Z,21.40
2018-02-18T09:22:27.317Z,21.80
2018-02-18T09:23:27.347Z,21.20
2018-02-18T09:24:27.363Z,21.80
2018-02-18T09:25:27.394Z,22.10
2018-02-18T09:26:27.411Z,20.40
2018-02-18T09:27:27.440Z,20.80
2018-02-18T09:28:27.458Z,20.60
2018-02-18T09:29:27.488Z,21.60
2018-02-18T09:30:27.507Z,20.10
2018-02-18T09:31:27.537Z,20.50
2018-02-18T09:32:27.556Z,20.80
2018-02-18T09:33:27.588Z,21.10
2018-02-18T09:34:27.614Z,21.50
2018-02-18T09:35:27.639Z,19.80
2018-02-18T09:36:27.664Z,21.30
2018-02-18T09:37:27.684Z,20.20
2018-02-18T09:38:27.715Z,21.10
2018-02-18T09:39:27.736Z,20.90
2018-02-18T09:40:27.769Z,20.70
2018-02-18T09:41:27.790Z,20.20
2018-02-18T09:42:27.820Z,19.60
2018-02-18T09:43:27.842Z,19.70
2018-02-18T09:44:27.877Z,18.90
2018-02-18T09:45:27.898Z,18.60
2018-02-18T09:46:27.928Z,19.40
2018-02-18T09:47:27.949Z,19.80
2018-02-18T09:48:27.982Z,19.60
2018-02-18T09:49:28.006Z,20.10
2018-02-18T09:50:28.038Z,20.20
2018-02-18T09:51:28.061Z,19.70
2018-02-18T09:52:28.093Z,19.10
2018-02-18T09:53:28.116Z,19.00
2018-02-18T09:54:28.143Z,19.10
2018-02-18T09:55:28.177Z,18.50
2018-02-18T09:56:28.205Z,19.00
2018-02-18T09:57:28.228Z,20.30
2018-02-18T09:58:28.255Z,19.70
2018-02-18T09:59:28.289Z,18.60
2018-02-18T10:00:28.316Z,19.50
2018-02-18T10:01:28.339Z,17.60
2018-02-18T10:02:28.373Z,17.70
2018-02-18T10:03:28.420Z,19.20
2018-02-18T10:04:28.431Z,19.60
2018-02-18T10:05:28.453Z,19.80
2018-02-18T10:06:28.482Z,20.30
2018-02-18T10:07:28.515Z,19.20
2018-02-18T10:08:28.539Z,19.20
2018-02-18T10:09:28.595Z,18.80
2018-02-18T10:10:28.600Z,19.50
2018-02-18T10:11:28.624Z,20.10
2018-02-18T10:12:28.653Z,20.20
2018-02-18T10:13:28.688Z,19.60
2018-02-18T10:14:28.768Z,18.40
2018-02-18T10:15:28.741Z,20.20
2018-02-18T10:16:28.766Z,18.70
2018-02-18T10:17:28.802Z,18.70
2018-02-18T10:18:28.825Z,18.60
2018-02-18T10:19:28.857Z,18.70
2018-02-18T10:20:28.880Z,18.60
2018-02-18T10:21:28.914Z,18.40
2018-02-18T10:22:28.943Z,19.40
2018-02-18T10:23:28.964Z,17.90
2018-02-18T10:24:28.992Z,18.40
2018-02-18T10:25:29.027Z,21.10
2018-02-18T10:26:29.053Z,18.40
2018-02-18T10:27:29.077Z,18.30
2018-02-18T10:28:29.107Z,18.40
2018-02-18T10:29:29.139Z,17.70
2018-02-18T10:30:29.198Z,18.70
2018-02-18T10:31:29.192Z,18.20
2018-02-18T10:32:29.229Z,18.50
2018-02-18T10:33:29.250Z,17.70
2018-02-18T10:34:29.282Z,19.00
2018-02-18T10:35:29.306Z,18.40
2018-02-18T10:36:29.341Z,19.10
2018-02-18T10:37:29.365Z,18.90
2018-02-18T10:38:29.397Z,19.70
2018-02-18T10:39:29.420Z,19.50
2018-02-18T10:40:29.450Z,18.20
2018-02-18T10:41:29.484Z,18.20
2018-02-18T10:42:29.513Z,18.60
2018-02-18T10:43:29.541Z,18.00
2018-02-18T10:44:29.566Z,18.90
2018-02-18T10:45:29.594Z,17.30
2018-02-18T10:46:29.628Z,18.50
2018-02-18T10:47:29.651Z,18.90
2018-02-18T10:48:29.680Z,18.20
2018-02-18T10:49:29.719Z,18.90
2018-02-18T10:50:29.740Z,17.90
2018-02-18T10:51:29.773Z,18.40
2018-02-18T10:52:29.848Z,19.10
2018-02-18T10:53:29.832Z,17.00
2018-02-18T10:54:29.859Z,18.60
2018-02-18T10:55:29.894Z,19.30
2018-02-18T10:56:29.914Z,18.60
2018-02-18T10:57:29.950Z,19.70
2018-02-18T10:58:29.978Z,18.10
2018-02-18T10:59:30.007Z,16.70
2018-02-18T11:00:30.033Z,18.90
2018-02-18T11:01:30.061Z,16.30
2018-02-18T11:02:30.095Z,18.20
2018-02-18T11:03:30.120Z,18.20
2018-02-18T11:04:30.155Z,19.00
2018-02-18T11:05:30.179Z,17.60
2018-02-18T11:06:30.207Z,18.20
2018-02-18T11:07:30.242Z,19.00
2018-02-18T11:08:30.272Z,18.50
2018-02-18T11:09:30.297Z,18.60
2018-02-18T11:10:30.325Z,18.90
2018-02-18T11:11:30.362Z,18.70
2018-02-18T11:12:30.390Z,17.50
2018-02-18T11:13:30.413Z,19.00
2018-02-18T11:14:30.447Z,18.60
2018-02-18T11:15:30.478Z,19.50
2018-02-18T11:16:30.507Z,18.40
2018-02-18T11:17:30.535Z,18.50
2018-02-18T11:18:30.564Z,18.80
2018-02-18T11:19:30.594Z,16.60
2018-02-18T11:20:30.619Z,18.10
2018-02-18T11:21:30.653Z,16.70
2018-02-18T11:22:30.682Z,17.70
2018-02-18T11:23:30.708Z,16.40
2018-02-18T11:24:30.737Z,18.40
2018-02-18T11:25:30.770Z,17.80
2018-02-18T11:26:30.799Z,18.10
2018-02-18T11:27:30.823Z,17.30
2018-02-18T11:28:30.857Z,17.60
2018-02-18T11:29:30.887Z,16.00
2018-02-18T11:30:30.909Z,17.70
2018-02-18T11:31:30.976Z,17.80
2018-02-18T11:32:30.969Z,18.40
2018-02-18T11:33:31.004Z,16.40
2018-02-18T11:34:31.035Z,18.50
2018-02-18T11:35:31.065Z,17.40
2018-02-18T11:36:31.096Z,18.20
2018-02-18T11:37:31.116Z,17.20
2018-02-18T11:38:31.148Z,18.50
2018-02-18T11:39:31.173Z,18.60
2018-02-18T11:40:31.208Z,17.70
2018-02-18T11:41:31.233Z,18.70
2018-02-18T11:42:31.266Z,17.20
2018-02-18T11:43:31.290Z,18.50
2018-02-18T11:44:31.323Z,17.60
2018-02-18T11:45:31.354Z,17.70
2018-02-18T11:46:31.383Z,17.90
2018-02-18T11:47:31.408Z,17.40
2018-02-18T11:48:31.437Z,17.40
2018-02-18T11:49:31.467Z,19.00
2018-02-18T11:50:31.496Z,19.00
2018-02-18T11:51:31.524Z,17.60
2018-02-18T11:52:31.554Z,17.70
2018-02-18T11:53:31.589Z,19.00
2018-02-18T11:54:31.612Z,16.60
2018-02-18T11:55:31.646Z,18.50
2018-02-18T11:56:31.669Z,17.90
2018-02-18T11:57:31.704Z,19.60
2018-02-18T11:58:31.727Z,18.20
2018-02-18T11:59:31.765Z,19.10
2018-02-18T12:00:31.790Z,16.40
2018-02-18T12:01:31.816Z,17.70
2018-02-18T12:02:31.842Z,18.20
2018-02-18T12:03:31.871Z,17.90
2018-02-18T12:04:31.905Z,19.40
2018-02-18T12:05:31.934Z,19.10
2018-02-18T12:06:31.955Z,18.50
2018-02-18T12:07:31.991Z,17.80
2018-02-18T12:08:32.020Z,19.30
2018-02-18T12:09:32.042Z,18.60
2018-02-18T12:10:32.076Z,18.70
2018-02-18T12:11:32.102Z,19.10
2018-02-18T12:12:32.137Z,19.40
2018-02-18T12:13:32.157Z,20.40
2018-02-18T12:14:32.184Z,19.70
2018-02-18T12:15:32.221Z,17.00
2018-02-18T12:16:32.293Z,18.30
2018-02-18T12:17:32.277Z,17.90
2018-02-18T12:18:32.307Z,19.20
2018-02-18T12:19:32.334Z,19.10
2018-02-18T12:20:32.359Z,18.00
2018-02-18T12:21:32.389Z,19.70
2018-02-18T12:22:32.419Z,19.50
2018-02-18T12:23:32.443Z,19.80
2018-02-18T12:24:32.471Z,18.30
2018-02-18T12:25:32.532Z,18.50
2018-02-18T12:26:32.526Z,18.50
2018-02-18T12:27:32.562Z,18.60
2018-02-18T12:28:32.586Z,18.10
2018-02-18T12:29:32.619Z,17.40
2018-02-18T12:30:32.649Z,19.30
2018-02-18T12:31:32.672Z,17.60
2018-02-18T12:32:32.706Z,17.40
2018-02-18T12:33:32.729Z,19.10
2018-02-18T12:34:32.760Z,19.60
2018-02-18T12:35:32.790Z,19.30
2018-02-18T12:36:32.821Z,19.90
2018-02-18T12:37:32.843Z,19.30
2018-02-18T12:38:32.871Z,19.00
2018-02-18T12:39:32.906Z,18.40
2018-02-18T12:40:32.935Z,18.30
2018-02-18T12:41:32.958Z,18.20
2018-02-18T12:42:32.989Z,19.90
2018-02-18T12:43:33.012Z,19.40
2018-02-18T12:44:33.049Z,19.70
2018-02-18T12:45:33.071Z,18.80
2018-02-18T12:46:33.099Z,20.80
2018-02-18T12:47:33.131Z,19.00
2018-02-18T12:48:33.154Z,18.90
2018-02-18T12:49:33.186Z,19.00
2018-02-18T12:50:33.214Z,19.90
2018-02-18T12:51:33.239Z,19.20
2018-02-18T12:52:33.267Z,16.70